sensor_id;sensor_type;location;lat;lon;timestamp;P1;durP1;ratioP1;P2;durP2;ratioP2
40601;SDS011;26310;50.278;19.032;2022-11-21T00:02:31;32.20;;;17.27;;
40601;SDS011;26310;50.278;19.032;2022-11-21T00:07:37;32.37;;;16.30;;
40601;SDS011;26310;50.278;19.032;2022-11-21T00:12:40;33.57;;;16.27;;
40601;SDS011;26310;50.278;19.032;2022-11-21T00:17:43;32.63;;;14.83;;
40601;SDS011;26310;50.278;19.032;2022-11-21T00:22:46;34.67;;;16.13;;
40601;SDS011;26310;50.278;19.032;2022-11-21T00:27:51;37.83;;;16.57;;
40601;SDS011;26310;50.278;19.032;2022-11-21T05:34:37;40.00;;;20.50;;
40601;SDS011;26310;50.278;19.032;2022-11-21T05:39:40;39.20;;;20.20;;
40601;SDS011;26310;50.278;19.032;2022-11-21T05:44:46;50.20;;;21.93;;
40601;SDS011;26310;50.278;19.032;2022-11-21T05:49:49;43.07;;;21.57;;
40601;SDS011;26310;50.278;19.032;2022-11-21T05:54:52;46.20;;;24.03;;
40601;SDS011;26310;50.278;19.032;2022-11-21T05:59:55;48.57;;;23.33;;
40601;SDS011;26310;50.278;19.032;2022-11-21T06:04:58;56.30;;;25.00;;
40601;SDS011;26310;50.278;19.032;2022-11-21T06:10:00;53.90;;;24.20;;
40601;SDS011;26310;50.278;19.032;2022-11-21T06:15:03;58.73;;;26.67;;
40601;SDS011;26310;50.278;19.032;2022-11-21T06:20:08;64.30;;;26.07;;
40601;SDS011;26310;50.278;19.032;2022-11-21T06:25:12;55.50;;;26.73;;
40601;SDS011;26310;50.278;19.032;2022-11-21T06:30:15;46.07;;;24.77;;
40601;SDS011;26310;50.278;19.032;2022-11-21T06:35:23;55.50;;;27.70;;
40601;SDS011;26310;50.278;19.032;2022-11-21T06:40:26;59.27;;;28.17;;
40601;SDS011;26310;50.278;19.032;2022-11-21T06:45:39;61.80;;;28.07;;
40601;SDS011;26310;50.278;19.032;2022-11-21T06:50:45;65.30;;;26.83;;
40601;SDS011;26310;50.278;19.032;2022-11-21T06:55:51;58.90;;;25.70;;
40601;SDS011;26310;50.278;19.032;2022-11-21T07:00:54;55.77;;;25.30;;
40601;SDS011;26310;50.278;19.032;2022-11-21T07:05:58;59.30;;;25.83;;
40601;SDS011;26310;50.278;19.032;2022-11-21T07:11:03;60.67;;;27.67;;
40601;SDS011;26310;50.278;19.032;2022-11-21T07:16:27;63.30;;;28.03;;
40601;SDS011;26310;50.278;19.032;2022-11-21T07:21:33;68.53;;;29.20;;
40601;SDS011;26310;50.278;19.032;2022-11-21T07:26:38;58.67;;;29.63;;
40601;SDS011;26310;50.278;19.032;2022-11-21T07:31:41;64.83;;;28.27;;
40601;SDS011;26310;50.278;19.032;2022-11-21T07:36:44;67.57;;;30.17;;
40601;SDS011;26310;50.278;19.032;2022-11-21T07:41:47;64.80;;;29.77;;
40601;SDS011;26310;50.278;19.032;2022-11-21T07:46:52;71.03;;;31.80;;
40601;SDS011;26310;50.278;19.032;2022-11-21T07:51:57;68.20;;;31.03;;
40601;SDS011;26310;50.278;19.032;2022-11-21T07:57:00;64.83;;;31.57;;
40601;SDS011;26310;50.278;19.032;2022-11-21T08:02:02;58.97;;;29.17;;
40601;SDS011;26310;50.278;19.032;2022-11-21T08:07:05;63.53;;;29.90;;
40601;SDS011;26310;50.278;19.032;2022-11-21T08:12:10;54.13;;;29.07;;
40601;SDS011;26310;50.278;19.032;2022-11-21T08:17:13;63.03;;;29.10;;
40601;SDS011;26310;50.278;19.032;2022-11-21T08:22:19;54.30;;;26.10;;
40601;SDS011;26310;50.278;19.032;2022-11-21T08:27:22;58.90;;;27.97;;
40601;SDS011;26310;50.278;19.032;2022-11-21T08:32:25;51.93;;;26.63;;
40601;SDS011;26310;50.278;19.032;2022-11-21T08:37:28;53.33;;;25.93;;
40601;SDS011;26310;50.278;19.032;2022-11-21T08:42:31;56.07;;;25.50;;
40601;SDS011;26310;50.278;19.032;2022-11-21T08:47:34;60.90;;;27.87;;
40601;SDS011;26310;50.278;19.032;2022-11-21T08:52:37;59.37;;;28.70;;
40601;SDS011;26310;50.278;19.032;2022-11-21T08:57:40;57.50;;;30.40;;
40601;SDS011;26310;50.278;19.032;2022-11-21T09:02:43;57.50;;;27.83;;
40601;SDS011;26310;50.278;19.032;2022-11-21T09:07:58;53.90;;;25.90;;
40601;SDS011;26310;50.278;19.032;2022-11-21T09:13:01;49.13;;;25.67;;
40601;SDS011;26310;50.278;19.032;2022-11-21T09:18:04;48.47;;;24.40;;
40601;SDS011;26310;50.278;19.032;2022-11-21T09:23:09;35.93;;;20.23;;
40601;SDS011;26310;50.278;19.032;2022-11-21T09:28:13;43.57;;;23.63;;
40601;SDS011;26310;50.278;19.032;2022-11-21T09:33:18;42.30;;;23.73;;
40601;SDS011;26310;50.278;19.032;2022-11-21T09:38:21;40.77;;;22.23;;
40601;SDS011;26310;50.278;19.032;2022-11-21T09:43:29;39.97;;;21.97;;
40601;SDS011;26310;50.278;19.032;2022-11-21T09:48:50;38.57;;;19.77;;
40601;SDS011;26310;50.278;19.032;2022-11-21T09:54:18;30.27;;;15.10;;
40601;SDS011;26310;50.278;19.032;2022-11-21T10:04:39;26.73;;;14.87;;
40601;SDS011;26310;50.278;19.032;2022-11-21T10:10:06;23.77;;;13.80;;
40601;SDS011;26310;50.278;19.032;2022-11-21T10:15:54;25.20;;;14.17;;
40601;SDS011;26310;50.278;19.032;2022-11-21T10:26:22;24.93;;;14.27;;
40601;SDS011;26310;50.278;19.032;2022-11-21T10:31:47;22.67;;;13.47;;
40601;SDS011;26310;50.278;19.032;2022-11-21T10:36:59;23.90;;;13.27;;
40601;SDS011;26310;50.278;19.032;2022-11-21T10:42:34;22.77;;;13.77;;
40601;SDS011;26310;50.278;19.032;2022-11-21T10:47:51;24.30;;;13.47;;
40601;SDS011;26310;50.278;19.032;2022-11-21T10:58:46;26.53;;;14.00;;
40601;SDS011;26310;50.278;19.032;2022-11-21T11:04:05;28.00;;;15.77;;
40601;SDS011;26310;50.278;19.032;2022-11-21T11:09:32;29.53;;;15.90;;
40601;SDS011;26310;50.278;19.032;2022-11-21T11:14:45;29.70;;;16.33;;
40601;SDS011;26310;50.278;19.032;2022-11-21T11:25:59;30.87;;;17.63;;
40601;SDS011;26310;50.278;19.032;2022-11-21T11:31:11;34.20;;;17.13;;
40601;SDS011;26310;50.278;19.032;2022-11-21T11:36:30;33.80;;;18.20;;
40601;SDS011;26310;50.278;19.032;2022-11-21T11:47:28;36.20;;;19.43;;
40601;SDS011;26310;50.278;19.032;2022-11-21T11:58:15;35.80;;;19.30;;
40601;SDS011;26310;50.278;19.032;2022-11-21T12:03:30;37.00;;;20.47;;
40601;SDS011;26310;50.278;19.032;2022-11-21T12:09:00;36.23;;;19.60;;
40601;SDS011;26310;50.278;19.032;2022-11-21T12:14:42;33.97;;;18.03;;
40601;SDS011;26310;50.278;19.032;2022-11-21T12:20:22;28.73;;;15.30;;
40601;SDS011;26310;50.278;19.032;2022-11-21T12:25:30;20.73;;;13.33;;
40601;SDS011;26310;50.278;19.032;2022-11-21T13:08:41;11.07;;;5.93;;
40601;SDS011;26310;50.278;19.032;2022-11-21T13:13:44;10.60;;;5.70;;
40601;SDS011;26310;50.278;19.032;2022-11-21T13:18:52;8.83;;;5.53;;
40601;SDS011;26310;50.278;19.032;2022-11-21T13:23:55;11.83;;;6.03;;
40601;SDS011;26310;50.278;19.032;2022-11-21T13:29:09;10.03;;;5.37;;
40601;SDS011;26310;50.278;19.032;2022-11-21T13:39:36;7.87;;;5.27;;
40601;SDS011;26310;50.278;19.032;2022-11-21T13:44:40;12.20;;;5.70;;
40601;SDS011;26310;50.278;19.032;2022-11-21T13:49:46;11.50;;;6.20;;
40601;SDS011;26310;50.278;19.032;2022-11-21T14:11:18;10.90;;;5.13;;
40601;SDS011;26310;50.278;19.032;2022-11-21T14:21:28;7.37;;;4.87;;
40601;SDS011;26310;50.278;19.032;2022-11-21T14:26:39;9.90;;;5.47;;
40601;SDS011;26310;50.278;19.032;2022-11-21T14:31:48;10.50;;;5.53;;
40601;SDS011;26310;50.278;19.032;2022-11-21T14:36:51;9.77;;;5.50;;
40601;SDS011;26310;50.278;19.032;2022-11-21T14:41:54;10.87;;;5.70;;
40601;SDS011;26310;50.278;19.032;2022-11-21T14:47:10;9.17;;;5.73;;
40601;SDS011;26310;50.278;19.032;2022-11-21T14:52:23;14.17;;;6.23;;
40601;SDS011;26310;50.278;19.032;2022-11-21T14:57:30;13.33;;;5.87;;
40601;SDS011;26310;50.278;19.032;2022-11-21T15:02:37;11.57;;;6.60;;
40601;SDS011;26310;50.278;19.032;2022-11-21T15:07:41;11.53;;;6.30;;
40601;SDS011;26310;50.278;19.032;2022-11-21T15:17:50;12.13;;;5.87;;
40601;SDS011;26310;50.278;19.032;2022-11-21T15:23:25;8.57;;;5.43;;
40601;SDS011;26310;50.278;19.032;2022-11-21T15:28:32;14.40;;;6.53;;
40601;SDS011;26310;50.278;19.032;2022-11-21T15:39:21;12.67;;;7.00;;
40601;SDS011;26310;50.278;19.032;2022-11-21T15:44:24;14.53;;;7.63;;
40601;SDS011;26310;50.278;19.032;2022-11-21T15:49:27;16.73;;;9.03;;
40601;SDS011;26310;50.278;19.032;2022-11-21T15:54:34;15.17;;;9.33;;
40601;SDS011;26310;50.278;19.032;2022-11-21T15:59:37;19.57;;;9.70;;
40601;SDS011;26310;50.278;19.032;2022-11-21T16:04:40;17.70;;;9.20;;
40601;SDS011;26310;50.278;19.032;2022-11-21T16:09:43;28.27;;;10.27;;
40601;SDS011;26310;50.278;19.032;2022-11-21T16:14:46;15.93;;;9.17;;
40601;SDS011;26310;50.278;19.032;2022-11-21T16:19:49;18.30;;;11.83;;
40601;SDS011;26310;50.278;19.032;2022-11-21T16:24:52;21.07;;;12.23;;
40601;SDS011;26310;50.278;19.032;2022-11-21T16:29:55;22.67;;;12.00;;
40601;SDS011;26310;50.278;19.032;2022-11-21T16:34:57;21.63;;;12.33;;
40601;SDS011;26310;50.278;19.032;2022-11-21T16:40:00;20.67;;;11.50;;
40601;SDS011;26310;50.278;19.032;2022-11-21T16:45:04;21.13;;;11.57;;
40601;SDS011;26310;50.278;19.032;2022-11-21T16:50:07;23.77;;;12.70;;
40601;SDS011;26310;50.278;19.032;2022-11-21T16:55:10;23.17;;;12.40;;
40601;SDS011;26310;50.278;19.032;2022-11-21T17:00:13;23.57;;;12.53;;
40601;SDS011;26310;50.278;19.032;2022-11-21T17:05:16;22.57;;;12.73;;
40601;SDS011;26310;50.278;19.032;2022-11-21T17:10:19;24.73;;;13.50;;
40601;SDS011;26310;50.278;19.032;2022-11-21T17:15:22;28.00;;;14.30;;
40601;SDS011;26310;50.278;19.032;2022-11-21T17:20:24;26.67;;;14.90;;
40601;SDS011;26310;50.278;19.032;2022-11-21T17:25:28;25.33;;;15.27;;
40601;SDS011;26310;50.278;19.032;2022-11-21T17:30:30;21.03;;;12.87;;
40601;SDS011;26310;50.278;19.032;2022-11-21T17:35:34;27.70;;;14.07;;
40601;SDS011;26310;50.278;19.032;2022-11-21T17:40:37;20.77;;;12.10;;
40601;SDS011;26310;50.278;19.032;2022-11-21T17:45:40;22.77;;;13.33;;
40601;SDS011;26310;50.278;19.032;2022-11-21T17:50:43;29.47;;;15.57;;
40601;SDS011;26310;50.278;19.032;2022-11-21T17:55:47;25.83;;;14.37;;
40601;SDS011;26310;50.278;19.032;2022-11-21T18:00:54;30.60;;;15.30;;
40601;SDS011;26310;50.278;19.032;2022-11-21T18:06:08;33.23;;;15.20;;
40601;SDS011;26310;50.278;19.032;2022-11-21T18:11:13;31.20;;;17.17;;
40601;SDS011;26310;50.278;19.032;2022-11-21T18:16:20;32.47;;;16.47;;
40601;SDS011;26310;50.278;19.032;2022-11-21T18:21:25;33.07;;;16.57;;
40601;SDS011;26310;50.278;19.032;2022-11-21T18:26:32;32.77;;;17.77;;
40601;SDS011;26310;50.278;19.032;2022-11-21T18:31:38;32.63;;;18.33;;
40601;SDS011;26310;50.278;19.032;2022-11-21T18:36:43;36.13;;;20.60;;
40601;SDS011;26310;50.278;19.032;2022-11-21T18:41:48;36.40;;;19.53;;
40601;SDS011;26310;50.278;19.032;2022-11-21T18:46:51;37.33;;;20.77;;
40601;SDS011;26310;50.278;19.032;2022-11-21T18:51:54;38.27;;;22.00;;
40601;SDS011;26310;50.278;19.032;2022-11-21T18:56:57;41.53;;;21.40;;
40601;SDS011;26310;50.278;19.032;2022-11-21T19:02:00;37.13;;;21.23;;
40601;SDS011;26310;50.278;19.032;2022-11-21T19:07:03;38.70;;;20.17;;
40601;SDS011;26310;50.278;19.032;2022-11-21T19:12:13;35.47;;;19.87;;
40601;SDS011;26310;50.278;19.032;2022-11-21T19:17:17;40.03;;;19.70;;
40601;SDS011;26310;50.278;19.032;2022-11-21T19:22:20;46.00;;;20.50;;
40601;SDS011;26310;50.278;19.032;2022-11-21T19:27:29;43.93;;;21.53;;
40601;SDS011;26310;50.278;19.032;2022-11-21T19:32:32;48.80;;;22.53;;
40601;SDS011;26310;50.278;19.032;2022-11-21T19:37:44;44.87;;;23.03;;
40601;SDS011;26310;50.278;19.032;2022-11-21T19:42:47;46.13;;;21.50;;
40601;SDS011;26310;50.278;19.032;2022-11-21T19:47:50;45.57;;;23.40;;
40601;SDS011;26310;50.278;19.032;2022-11-21T19:52:58;41.63;;;23.03;;
40601;SDS011;26310;50.278;19.032;2022-11-21T19:58:01;40.47;;;23.27;;
40601;SDS011;26310;50.278;19.032;2022-11-21T20:03:04;66.50;;;28.73;;
40601;SDS011;26310;50.278;19.032;2022-11-21T20:08:10;63.53;;;30.37;;
40601;SDS011;26310;50.278;19.032;2022-11-21T20:13:18;54.93;;;27.07;;
40601;SDS011;26310;50.278;19.032;2022-11-21T20:18:24;56.80;;;27.03;;
40601;SDS011;26310;50.278;19.032;2022-11-21T20:23:30;53.37;;;28.17;;
40601;SDS011;26310;50.278;19.032;2022-11-21T20:28:34;57.13;;;27.47;;
40601;SDS011;26310;50.278;19.032;2022-11-21T20:33:38;57.37;;;27.40;;
40601;SDS011;26310;50.278;19.032;2022-11-21T20:38:42;59.57;;;28.13;;
40601;SDS011;26310;50.278;19.032;2022-11-21T20:43:54;54.00;;;25.63;;
40601;SDS011;26310;50.278;19.032;2022-11-21T20:49:21;51.33;;;25.13;;
40601;SDS011;26310;50.278;19.032;2022-11-21T20:54:24;47.23;;;23.83;;
40601;SDS011;26310;50.278;19.032;2022-11-21T20:59:28;48.43;;;25.00;;
40601;SDS011;26310;50.278;19.032;2022-11-21T21:04:31;43.27;;;23.80;;
40601;SDS011;26310;50.278;19.032;2022-11-21T21:09:34;50.00;;;23.00;;
40601;SDS011;26310;50.278;19.032;2022-11-21T21:14:37;43.23;;;23.03;;
40601;SDS011;26310;50.278;19.032;2022-11-21T21:19:40;50.87;;;23.57;;
40601;SDS011;26310;50.278;19.032;2022-11-21T21:24:46;42.93;;;22.57;;
40601;SDS011;26310;50.278;19.032;2022-11-21T21:29:49;44.67;;;21.90;;
40601;SDS011;26310;50.278;19.032;2022-11-21T21:34:52;44.73;;;22.63;;
40601;SDS011;26310;50.278;19.032;2022-11-21T21:39:55;47.87;;;22.07;;
40601;SDS011;26310;50.278;19.032;2022-11-21T21:44:58;45.13;;;23.57;;
40601;SDS011;26310;50.278;19.032;2022-11-21T21:50:08;41.00;;;21.57;;
40601;SDS011;26310;50.278;19.032;2022-11-21T21:55:16;45.67;;;23.00;;
40601;SDS011;26310;50.278;19.032;2022-11-21T22:00:21;48.63;;;22.40;;
40601;SDS011;26310;50.278;19.032;2022-11-21T22:05:24;48.17;;;23.03;;
40601;SDS011;26310;50.278;19.032;2022-11-21T22:10:27;47.50;;;22.77;;
40601;SDS011;26310;50.278;19.032;2022-11-21T22:15:36;43.00;;;21.80;;
40601;SDS011;26310;50.278;19.032;2022-11-21T22:20:43;31.90;;;18.73;;
40601;SDS011;26310;50.278;19.032;2022-11-21T22:25:46;47.80;;;22.10;;
40601;SDS011;26310;50.278;19.032;2022-11-21T22:30:52;37.10;;;19.13;;
40601;SDS011;26310;50.278;19.032;2022-11-21T22:35:59;44.77;;;22.60;;
40601;SDS011;26310;50.278;19.032;2022-11-21T22:41:23;42.77;;;22.60;;
40601;SDS011;26310;50.278;19.032;2022-11-21T22:46:27;42.43;;;22.53;;
40601;SDS011;26310;50.278;19.032;2022-11-21T22:51:31;46.30;;;23.27;;
40601;SDS011;26310;50.278;19.032;2022-11-21T22:56:35;49.30;;;25.33;;
40601;SDS011;26310;50.278;19.032;2022-11-21T23:01:38;50.17;;;23.90;;
40601;SDS011;26310;50.278;19.032;2022-11-21T23:06:40;57.97;;;30.27;;
40601;SDS011;26310;50.278;19.032;2022-11-21T23:11:43;54.03;;;29.37;;
40601;SDS011;26310;50.278;19.032;2022-11-21T23:16:46;53.27;;;27.03;;
40601;SDS011;26310;50.278;19.032;2022-11-21T23:21:49;62.73;;;29.23;;
40601;SDS011;26310;50.278;19.032;2022-11-21T23:26:52;66.30;;;33.00;;
40601;SDS011;26310;50.278;19.032;2022-11-21T23:31:55;69.87;;;31.13;;
40601;SDS011;26310;50.278;19.032;2022-11-21T23:36:57;66.57;;;32.13;;
40601;SDS011;26310;50.278;19.032;2022-11-21T23:42:00;65.00;;;31.60;;
40601;SDS011;26310;50.278;19.032;2022-11-21T23:47:05;78.53;;;32.03;;
40601;SDS011;26310;50.278;19.032;2022-11-21T23:52:07;64.87;;;31.50;;
40601;SDS011;26310;50.278;19.032;2022-11-21T23:57:10;67.97;;;30.53;;
